sensor_id;sensor_type;location;lat;lon;timestamp;pressure;altitude;pressure_sealevel;temperature;humidity
8280;BME280;8335;42.646;23.380;2023-05-19T00:01:12;144514.28;;;11.87;100.00
8280;BME280;8335;42.646;23.380;2023-05-19T00:03:49;144518.00;;;11.89;100.00
8280;BME280;8335;42.646;23.380;2023-05-19T00:06:21;144525.44;;;11.92;100.00
8280;BME280;8335;42.646;23.380;2023-05-19T00:08:48;144520.47;;;11.90;100.00
8280;BME280;8335;42.646;23.380;2023-05-19T00:11:15;144490.56;;;11.77;100.00
8280;BME280;8335;42.646;23.380;2023-05-19T00:13:42;144531.69;;;11.94;100.00
8280;BME280;8335;42.646;23.380;2023-05-19T00:16:13;144530.47;;;11.94;100.00
8280;BME280;8335;42.646;23.380;2023-05-19T00:18:40;144530.47;;;11.94;100.00
8280;BME280;8335;42.646;23.380;2023-05-19T00:21:07;144515.53;;;11.88;100.00
8280;BME280;8335;42.646;23.380;2023-05-19T00:23:35;144519.25;;;11.89;100.00
8280;BME280;8335;42.646;23.380;2023-05-19T00:26:02;144506.78;;;11.84;100.00
8280;BME280;8335;42.646;23.380;2023-05-19T00:28:29;144504.31;;;11.83;100.00
8280;BME280;8335;42.646;23.380;2023-05-19T00:30:55;144508.03;;;11.84;100.00
8280;BME280;8335;42.646;23.380;2023-05-19T00:33:22;144503.06;;;11.82;100.00
8280;BME280;8335;42.646;23.380;2023-05-19T00:35:49;144490.56;;;11.77;100.00
8280;BME280;8335;42.646;23.380;2023-05-19T00:38:16;144509.28;;;11.85;100.00
8280;BME280;8335;42.646;23.380;2023-05-19T00:40:44;144488.09;;;11.76;100.00
8280;BME280;8335;42.646;23.380;2023-05-19T00:43:11;144490.56;;;11.77;100.00
8280;BME280;8335;42.646;23.380;2023-05-19T00:45:38;144486.84;;;11.76;100.00
8280;BME280;8335;42.646;23.380;2023-05-19T00:48:04;144488.09;;;11.76;100.00
8280;BME280;8335;42.646;23.380;2023-05-19T00:50:31;144474.38;;;11.71;100.00
8280;BME280;8335;42.646;23.380;2023-05-19T00:52:58;144489.31;;;11.77;100.00
8280;BME280;8335;42.646;23.380;2023-05-19T00:55:27;144483.13;;;11.74;100.00
8280;BME280;8335;42.646;23.380;2023-05-19T00:57:56;144486.84;;;11.76;100.00
8280;BME280;8335;42.646;23.380;2023-05-19T01:00:23;144475.63;;;11.71;100.00
8280;BME280;8335;42.646;23.380;2023-05-19T01:02:50;144493.03;;;11.78;100.00
8280;BME280;8335;42.646;23.380;2023-05-19T01:05:17;144503.06;;;11.82;100.00
8280;BME280;8335;42.646;23.380;2023-05-19T01:07:43;144504.31;;;11.83;100.00
8280;BME280;8335;42.646;23.380;2023-05-19T01:10:11;144505.53;;;11.83;100.00
8280;BME280;8335;42.646;23.380;2023-05-19T01:12:39;144505.53;;;11.83;100.00
8280;BME280;8335;42.646;23.380;2023-05-19T01:15:08;144498.09;;;11.80;100.00
8280;BME280;8335;42.646;23.380;2023-05-19T01:17:40;144493.03;;;11.78;100.00
8280;BME280;8335;42.646;23.380;2023-05-19T01:20:15;144473.16;;;11.70;100.00
8280;BME280;8335;42.646;23.380;2023-05-19T01:23:11;144408.47;;;11.44;100.00
8280;BME280;8335;42.646;23.380;2023-05-19T01:26:08;144449.53;;;11.61;100.00
8280;BME280;8335;42.646;23.380;2023-05-19T01:31:33;144424.66;;;11.50;100.00
8280;BME280;8335;42.646;23.380;2023-05-19T01:34:01;144413.44;;;11.46;100.00
8280;BME280;8335;42.646;23.380;2023-05-19T01:36:30;144396.03;;;11.39;100.00
8280;BME280;8335;42.646;23.380;2023-05-19T01:39:01;144394.78;;;11.38;100.00
8280;BME280;8335;42.646;23.380;2023-05-19T01:41:29;144394.78;;;11.38;100.00
8280;BME280;8335;42.646;23.380;2023-05-19T01:43:57;144394.78;;;11.38;100.00
8280;BME280;8335;42.646;23.380;2023-05-19T01:46:24;144399.75;;;11.40;100.00
8280;BME280;8335;42.646;23.380;2023-05-19T01:48:52;144383.56;;;11.34;100.00
8280;BME280;8335;42.646;23.380;2023-05-19T01:51:19;144384.81;;;11.34;100.00
8280;BME280;8335;42.646;23.380;2023-05-19T01:53:45;144386.06;;;11.35;100.00
8280;BME280;8335;42.646;23.380;2023-05-19T01:56:15;144389.81;;;11.36;100.00
8280;BME280;8335;42.646;23.380;2023-05-19T01:58:50;144383.56;;;11.34;100.00
8280;BME280;8335;42.646;23.380;2023-05-19T02:01:25;144377.38;;;11.31;100.00
8280;BME280;8335;42.646;23.380;2023-05-19T02:04:07;144387.28;;;11.35;100.00
8280;BME280;8335;42.646;23.380;2023-05-19T02:06:41;144347.50;;;11.19;100.00
8280;BME280;8335;42.646;23.380;2023-05-19T02:09:14;144351.22;;;11.20;100.00
8280;BME280;8335;42.646;23.380;2023-05-19T02:11:45;144369.88;;;11.28;100.00
8280;BME280;8335;42.646;23.380;2023-05-19T02:14:16;144353.72;;;11.21;100.00
8280;BME280;8335;42.646;23.380;2023-05-19T02:16:46;144350.00;;;11.20;100.00
8280;BME280;8335;42.646;23.380;2023-05-19T02:19:22;144356.25;;;11.22;100.00
8280;BME280;8335;42.646;23.380;2023-05-19T02:21:49;144342.53;;;11.17;100.00
8280;BME280;8335;42.646;23.380;2023-05-19T02:24:18;144325.13;;;11.10;100.00
8280;BME280;8335;42.646;23.380;2023-05-19T02:26:47;144321.41;;;11.08;100.00
8280;BME280;8335;42.646;23.380;2023-05-19T02:29:13;144316.41;;;11.06;100.00
8280;BME280;8335;42.646;23.380;2023-05-19T02:31:40;144307.72;;;11.02;100.00
8280;BME280;8335;42.646;23.380;2023-05-19T02:34:07;144312.69;;;11.05;100.00
8280;BME280;8335;42.646;23.380;2023-05-19T02:36:36;144304.00;;;11.01;100.00
8280;BME280;8335;42.646;23.380;2023-05-19T02:39:03;144286.59;;;10.94;100.00
8280;BME280;8335;42.646;23.380;2023-05-19T02:41:30;144276.63;;;10.90;100.00
8280;BME280;8335;42.646;23.380;2023-05-19T02:43:57;144136.16;;;10.32;100.00
8280;BME280;8335;42.646;23.380;2023-05-19T02:46:24;144215.72;;;10.65;100.00
8280;BME280;8335;42.646;23.380;2023-05-19T02:48:51;144250.53;;;10.79;100.00
8280;BME280;8335;42.646;23.380;2023-05-19T02:51:18;144245.53;;;10.77;100.00
8280;BME280;8335;42.646;23.380;2023-05-19T02:53:46;144225.66;;;10.69;100.00
8280;BME280;8335;42.646;23.380;2023-05-19T02:56:13;144228.13;;;10.70;100.00
8280;BME280;8335;42.646;23.380;2023-05-19T02:58:39;144223.16;;;10.68;100.00
8280;BME280;8335;42.646;23.380;2023-05-19T03:01:07;144221.94;;;10.67;100.00
8280;BME280;8335;42.646;23.380;2023-05-19T03:03:34;144216.97;;;10.65;100.00
8280;BME280;8335;42.646;23.380;2023-05-19T03:06:01;144218.22;;;10.66;100.00
8280;BME280;8335;42.646;23.380;2023-05-19T03:08:27;144213.19;;;10.64;100.00
8280;BME280;8335;42.646;23.380;2023-05-19T03:10:55;144198.31;;;10.58;100.00
8280;BME280;8335;42.646;23.380;2023-05-19T03:13:22;144207.00;;;10.61;100.00
8280;BME280;8335;42.646;23.380;2023-05-19T03:15:49;144197.03;;;10.57;100.00
8280;BME280;8335;42.646;23.380;2023-05-19T03:18:16;144195.78;;;10.57;100.00
8280;BME280;8335;42.646;23.380;2023-05-19T03:20:42;144203.28;;;10.60;100.00
8280;BME280;8335;42.646;23.380;2023-05-19T03:23:09;144216.97;;;10.65;100.00
8280;BME280;8335;42.646;23.380;2023-05-19T03:25:36;144265.41;;;10.85;100.00
8280;BME280;8335;42.646;23.380;2023-05-19T03:28:04;144310.19;;;11.03;100.00
8280;BME280;8335;42.646;23.380;2023-05-19T03:30:31;144353.72;;;11.21;100.00
8280;BME280;8335;42.646;23.380;2023-05-19T03:32:57;144420.88;;;11.49;100.00
8280;BME280;8335;42.646;23.380;2023-05-19T03:35:25;144484.34;;;11.75;100.00
8280;BME280;8335;42.646;23.380;2023-05-19T03:37:52;144541.63;;;11.98;100.00
8280;BME280;8335;42.646;23.380;2023-05-19T03:40:19;144591.44;;;12.19;100.00
8280;BME280;8335;42.646;23.380;2023-05-19T03:42:46;144662.38;;;12.48;100.00
8280;BME280;8335;42.646;23.380;2023-05-19T03:45:14;144710.94;;;12.67;100.00
8280;BME280;8335;42.646;23.380;2023-05-19T03:47:41;144824.25;;;13.14;100.00
8280;BME280;8335;42.646;23.380;2023-05-19T03:50:08;144890.34;;;13.41;100.00
8280;BME280;8335;42.646;23.380;2023-05-19T03:52:35;145000.00;;;13.86;100.00
8280;BME280;8335;42.646;23.380;2023-05-19T03:55:03;145106.00;;;14.29;100.00
8280;BME280;8335;42.646;23.380;2023-05-19T03:57:30;145231.97;;;14.80;100.00
8280;BME280;8335;42.646;23.380;2023-05-19T03:59:57;145346.72;;;15.27;99.28
8280;BME280;8335;42.646;23.380;2023-05-19T04:02:26;145444.13;;;15.67;96.81
8280;BME280;8335;42.646;23.380;2023-05-19T04:04:52;145481.56;;;15.82;94.75
8280;BME280;8335;42.646;23.380;2023-05-19T04:07:19;145436.63;;;15.64;95.05
8280;BME280;8335;42.646;23.380;2023-05-19T04:09:46;145421.63;;;15.58;94.97
8280;BME280;8335;42.646;23.380;2023-05-19T04:12:13;145382.91;;;15.42;95.50
8280;BME280;8335;42.646;23.380;2023-05-19T04:14:39;145385.44;;;15.43;96.32
8280;BME280;8335;42.646;23.380;2023-05-19T04:17:06;145440.41;;;15.65;95.87
8280;BME280;8335;42.646;23.380;2023-05-19T04:19:35;145647.63;;;16.50;92.15
8280;BME280;8335;42.646;23.380;2023-05-19T04:22:01;145800.06;;;17.12;89.22
8280;BME280;8335;42.646;23.380;2023-05-19T04:24:28;145830.06;;;17.24;87.39
8280;BME280;8335;42.646;23.380;2023-05-19T04:26:55;145835.06;;;17.26;87.37
8280;BME280;8335;42.646;23.380;2023-05-19T04:29:26;145922.53;;;17.62;86.30
8280;BME280;8335;42.646;23.380;2023-05-19T04:31:53;146071.38;;;18.23;84.21
8280;BME280;8335;42.646;23.380;2023-05-19T04:34:21;146272.81;;;19.05;81.38
8280;BME280;8335;42.646;23.380;2023-05-19T04:36:49;146465.59;;;19.83;73.90
8280;BME280;8335;42.646;23.380;2023-05-19T04:39:16;146645.97;;;20.56;70.40
8280;BME280;8335;42.646;23.380;2023-05-19T04:41:43;146836.47;;;21.34;67.22
8280;BME280;8335;42.646;23.380;2023-05-19T04:44:09;146969.38;;;21.88;63.24
8280;BME280;8335;42.646;23.380;2023-05-19T04:46:37;147245.38;;;23.00;58.50
8280;BME280;8335;42.646;23.380;2023-05-19T04:49:04;147501.50;;;24.04;54.25
8280;BME280;8335;42.646;23.380;2023-05-19T04:51:32;147684.88;;;24.78;51.50
8280;BME280;8335;42.646;23.380;2023-05-19T04:54:01;147869.66;;;25.53;49.06
8280;BME280;8335;42.646;23.380;2023-05-19T04:56:28;148008.00;;;26.09;46.53
8280;BME280;8335;42.646;23.380;2023-05-19T04:58:55;147942.63;;;25.83;47.07
8280;BME280;8335;42.646;23.380;2023-05-19T05:01:21;148014.28;;;26.12;46.01
8280;BME280;8335;42.646;23.380;2023-05-19T05:03:50;148098.59;;;26.46;45.86
8280;BME280;8335;42.646;23.380;2023-05-19T05:06:19;148158.94;;;26.70;44.58
8280;BME280;8335;42.646;23.380;2023-05-19T05:08:46;148196.66;;;26.85;43.34
8280;BME280;8335;42.646;23.380;2023-05-19T05:11:14;148255.88;;;27.09;43.05
8280;BME280;8335;42.646;23.380;2023-05-19T05:13:42;148282.28;;;27.20;42.71
8280;BME280;8335;42.646;23.380;2023-05-19T05:16:10;148221.84;;;26.96;42.67
8280;BME280;8335;42.646;23.380;2023-05-19T05:18:38;148267.19;;;27.14;41.97
8280;BME280;8335;42.646;23.380;2023-05-19T05:21:06;148234.44;;;27.01;41.85
8280;BME280;8335;42.646;23.380;2023-05-19T05:23:33;148160.19;;;26.71;42.44
8280;BME280;8335;42.646;23.380;2023-05-19T05:26:08;148235.72;;;27.01;42.64
8280;BME280;8335;42.646;23.380;2023-05-19T05:28:37;148336.38;;;27.42;42.12
8280;BME280;8335;42.646;23.380;2023-05-19T05:31:03;148414.50;;;27.74;41.01
8280;BME280;8335;42.646;23.380;2023-05-19T05:33:30;148497.53;;;28.07;40.50
8280;BME280;8335;42.646;23.380;2023-05-19T05:35:57;148588.28;;;28.44;39.19
8280;BME280;8335;42.646;23.380;2023-05-19T05:38:24;148641.19;;;28.65;38.42
8280;BME280;8335;42.646;23.380;2023-05-19T05:40:51;148651.22;;;28.69;38.13
8280;BME280;8335;42.646;23.380;2023-05-19T05:43:17;148709.19;;;28.93;38.33
8280;BME280;8335;42.646;23.380;2023-05-19T05:45:45;148781.00;;;29.22;37.77
8280;BME280;8335;42.646;23.380;2023-05-19T05:48:13;148867.97;;;29.57;36.65
8280;BME280;8335;42.646;23.380;2023-05-19T05:50:41;148873.06;;;29.59;36.60
8280;BME280;8335;42.646;23.380;2023-05-19T05:53:17;148922.16;;;29.79;37.24
8280;BME280;8335;42.646;23.380;2023-05-19T05:55:45;148914.63;;;29.76;35.97
8280;BME280;8335;42.646;23.380;2023-05-19T05:58:15;148973.84;;;30.00;36.33
8280;BME280;8335;42.646;23.380;2023-05-19T06:00:42;149045.75;;;30.29;35.85
8280;BME280;8335;42.646;23.380;2023-05-19T06:03:11;149151.69;;;30.72;35.17
8280;BME280;8335;42.646;23.380;2023-05-19T06:05:38;149234.94;;;31.05;33.57
8280;BME280;8335;42.646;23.380;2023-05-19T06:08:05;149309.41;;;31.35;33.76
8280;BME280;8335;42.646;23.380;2023-05-19T06:10:32;149274.03;;;31.21;34.28
8280;BME280;8335;42.646;23.380;2023-05-19T06:12:59;149330.88;;;31.44;33.66
8280;BME280;8335;42.646;23.380;2023-05-19T06:15:26;149323.28;;;31.41;33.12
8280;BME280;8335;42.646;23.380;2023-05-19T06:17:53;149332.16;;;31.44;33.57
8280;BME280;8335;42.646;23.380;2023-05-19T06:20:21;149121.44;;;30.59;33.06
8280;BME280;8335;42.646;23.380;2023-05-19T06:22:48;148918.41;;;29.77;35.65
8280;BME280;8335;42.646;23.380;2023-05-19T06:25:15;149035.69;;;30.25;35.66
8280;BME280;8335;42.646;23.380;2023-05-19T06:27:42;149096.19;;;30.49;34.63
8280;BME280;8335;42.646;23.380;2023-05-19T06:30:09;148936.03;;;29.84;34.70
8280;BME280;8335;42.646;23.380;2023-05-19T06:32:36;148692.75;;;28.86;36.85
8280;BME280;8335;42.646;23.380;2023-05-19T06:35:03;148486.25;;;28.03;37.98
8280;BME280;8335;42.646;23.380;2023-05-19T06:37:31;148355.25;;;27.50;38.28
8280;BME280;8335;42.646;23.380;2023-05-19T06:39:58;148366.59;;;27.54;37.76
8280;BME280;8335;42.646;23.380;2023-05-19T06:42:25;148209.28;;;26.91;39.69
8280;BME280;8335;42.646;23.380;2023-05-19T06:44:52;148200.47;;;26.87;39.47
8280;BME280;8335;42.646;23.380;2023-05-19T06:47:19;148365.34;;;27.54;38.44
8280;BME280;8335;42.646;23.380;2023-05-19T06:49:46;148628.56;;;28.60;37.30
8280;BME280;8335;42.646;23.380;2023-05-19T06:52:15;148896.97;;;29.69;36.25
8280;BME280;8335;42.646;23.380;2023-05-19T06:54:43;148899.50;;;29.70;34.69
8280;BME280;8335;42.646;23.380;2023-05-19T06:57:10;148867.97;;;29.57;34.33
8280;BME280;8335;42.646;23.380;2023-05-19T06:59:37;149007.94;;;30.13;33.86
8280;BME280;8335;42.646;23.380;2023-05-19T07:02:05;149028.09;;;30.22;33.20
8280;BME280;8335;42.646;23.380;2023-05-19T07:04:32;148957.47;;;29.93;34.72
8280;BME280;8335;42.646;23.380;2023-05-19T07:06:59;148918.41;;;29.77;34.51
8280;BME280;8335;42.646;23.380;2023-05-19T07:09:26;148931.00;;;29.82;34.70
8280;BME280;8335;42.646;23.380;2023-05-19T07:11:54;149035.69;;;30.25;34.96
8280;BME280;8335;42.646;23.380;2023-05-19T07:14:21;149165.59;;;30.77;33.75
8280;BME280;8335;42.646;23.380;2023-05-19T07:16:48;149300.59;;;31.32;32.22
8280;BME280;8335;42.646;23.380;2023-05-19T07:19:15;149398.97;;;31.71;32.37
8280;BME280;8335;42.646;23.380;2023-05-19T07:21:43;149571.97;;;32.41;31.21
8280;BME280;8335;42.646;23.380;2023-05-19T07:24:10;149647.72;;;32.72;31.02
8280;BME280;8335;42.646;23.380;2023-05-19T07:26:37;149640.16;;;32.69;30.73
8280;BME280;8335;42.646;23.380;2023-05-19T07:29:05;149603.53;;;32.54;30.38
8280;BME280;8335;42.646;23.380;2023-05-19T07:31:32;149558.09;;;32.36;30.42
8280;BME280;8335;42.646;23.380;2023-05-19T07:33:59;149415.44;;;31.78;30.60
8280;BME280;8335;42.646;23.380;2023-05-19T07:36:26;149111.31;;;30.55;31.49
8280;BME280;8335;42.646;23.380;2023-05-19T07:38:53;148845.28;;;29.48;33.20
8280;BME280;8335;42.646;23.380;2023-05-19T07:41:20;148632.34;;;28.62;35.80
8280;BME280;8335;42.646;23.380;2023-05-19T07:43:47;148612.19;;;28.54;35.49
8280;BME280;8335;42.646;23.380;2023-05-19T07:46:15;148760.84;;;29.14;35.02
8280;BME280;8335;42.646;23.380;2023-05-19T07:48:42;148977.66;;;30.01;34.14
8280;BME280;8335;42.646;23.380;2023-05-19T07:51:09;149078.53;;;30.42;33.84
8280;BME280;8335;42.646;23.380;2023-05-19T07:53:36;148948.66;;;29.90;33.27
8280;BME280;8335;42.646;23.380;2023-05-19T07:56:03;148846.53;;;29.48;33.64
8280;BME280;8335;42.646;23.380;2023-05-19T07:58:30;148965.03;;;29.96;32.24
8280;BME280;8335;42.646;23.380;2023-05-19T08:00:57;149079.78;;;30.42;31.80
8280;BME280;8335;42.646;23.380;2023-05-19T08:03:25;149123.94;;;30.60;32.14
8280;BME280;8335;42.646;23.380;2023-05-19T08:05:52;149290.50;;;31.28;32.16
8280;BME280;8335;42.646;23.380;2023-05-19T08:08:19;149452.03;;;31.93;30.31
8280;BME280;8335;42.646;23.380;2023-05-19T08:10:46;149415.44;;;31.78;30.36
8280;BME280;8335;42.646;23.380;2023-05-19T08:13:13;149348.56;;;31.51;30.89
8280;BME280;8335;42.646;23.380;2023-05-19T08:15:39;149431.84;;;31.85;31.36
8280;BME280;8335;42.646;23.380;2023-05-19T08:18:07;149517.66;;;32.19;30.85
8280;BME280;8335;42.646;23.380;2023-05-19T08:20:35;149385.13;;;31.66;29.96
8280;BME280;8335;42.646;23.380;2023-05-19T08:23:02;149506.28;;;32.15;29.70
8280;BME280;8335;42.646;23.380;2023-05-19T08:25:29;149609.84;;;32.56;30.22
8280;BME280;8335;42.646;23.380;2023-05-19T08:27:56;149436.94;;;31.87;29.46
8280;BME280;8335;42.646;23.380;2023-05-19T08:30:23;149272.78;;;31.20;30.59
8280;BME280;8335;42.646;23.380;2023-05-19T08:32:50;149404.06;;;31.73;30.53
8280;BME280;8335;42.646;23.380;2023-05-19T08:35:16;149444.47;;;31.90;30.27
8280;BME280;8335;42.646;23.380;2023-05-19T08:37:44;149429.31;;;31.84;29.95
8280;BME280;8335;42.646;23.380;2023-05-19T08:40:15;149453.28;;;31.93;30.01
8280;BME280;8335;42.646;23.380;2023-05-19T08:42:43;149444.47;;;31.90;30.73
8280;BME280;8335;42.646;23.380;2023-05-19T08:45:10;149392.69;;;31.69;30.70
8280;BME280;8335;42.646;23.380;2023-05-19T08:47:37;149376.28;;;31.62;31.10
8280;BME280;8335;42.646;23.380;2023-05-19T08:50:06;149130.22;;;30.63;30.69
8280;BME280;8335;42.646;23.380;2023-05-19T08:52:41;149221.06;;;31.00;32.11
8280;BME280;8335;42.646;23.380;2023-05-19T08:55:24;149279.16;;;31.23;30.59
8280;BME280;8335;42.646;23.380;2023-05-19T08:57:52;149315.75;;;31.38;31.08
8280;BME280;8335;42.646;23.380;2023-05-19T09:00:19;149367.47;;;31.59;30.10
8280;BME280;8335;42.646;23.380;2023-05-19T09:02:48;149241.28;;;31.08;31.36
8280;BME280;8335;42.646;23.380;2023-05-19T09:05:16;149204.66;;;30.93;32.94
8280;BME280;8335;42.646;23.380;2023-05-19T09:07:43;148977.66;;;30.01;32.12
8280;BME280;8335;42.646;23.380;2023-05-19T09:10:11;149074.75;;;30.40;32.38
8280;BME280;8335;42.646;23.380;2023-05-19T09:12:43;149166.84;;;30.78;31.86
8280;BME280;8335;42.646;23.380;2023-05-19T09:15:11;149021.81;;;30.19;32.76
8280;BME280;8335;42.646;23.380;2023-05-19T09:17:38;149025.59;;;30.21;32.62
8280;BME280;8335;42.646;23.380;2023-05-19T09:20:06;149077.28;;;30.41;32.35
8280;BME280;8335;42.646;23.380;2023-05-19T09:22:40;149001.66;;;30.11;33.22
8280;BME280;8335;42.646;23.380;2023-05-19T09:25:16;148865.47;;;29.56;33.56
8280;BME280;8335;42.646;23.380;2023-05-19T09:27:45;148980.19;;;30.02;33.01
8280;BME280;8335;42.646;23.380;2023-05-19T09:30:14;149097.44;;;30.50;32.70
8280;BME280;8335;42.646;23.380;2023-05-19T09:32:41;149040.72;;;30.27;32.69
8280;BME280;8335;42.646;23.380;2023-05-19T09:35:08;148954.94;;;29.92;32.31
8280;BME280;8335;42.646;23.380;2023-05-19T09:37:38;148831.41;;;29.42;33.60
8280;BME280;8335;42.646;23.380;2023-05-19T09:40:07;149018.03;;;30.18;33.86
8280;BME280;8335;42.646;23.380;2023-05-19T09:42:36;149102.50;;;30.52;34.14
8280;BME280;8335;42.646;23.380;2023-05-19T09:45:06;149047.03;;;30.29;33.89
8280;BME280;8335;42.646;23.380;2023-05-19T09:47:33;149002.91;;;30.11;34.94
8280;BME280;8335;42.646;23.380;2023-05-19T09:50:04;149111.31;;;30.55;33.42
8280;BME280;8335;42.646;23.380;2023-05-19T09:52:34;148861.69;;;29.54;33.94
8280;BME280;8335;42.646;23.380;2023-05-19T09:55:01;148503.88;;;28.10;36.12
8280;BME280;8335;42.646;23.380;2023-05-19T09:57:33;148594.56;;;28.46;36.64
8280;BME280;8335;42.646;23.380;2023-05-19T10:00:02;148651.22;;;28.69;34.74
8280;BME280;8335;42.646;23.380;2023-05-19T10:02:40;148730.66;;;29.01;33.82
8280;BME280;8335;42.646;23.380;2023-05-19T10:05:10;148835.22;;;29.44;33.73
8280;BME280;8335;42.646;23.380;2023-05-19T10:07:38;148794.88;;;29.27;33.46
8280;BME280;8335;42.646;23.380;2023-05-19T10:10:08;148639.91;;;28.65;33.69
8280;BME280;8335;42.646;23.380;2023-05-19T10:12:37;148592.03;;;28.45;34.26
8280;BME280;8335;42.646;23.380;2023-05-19T10:15:06;148561.81;;;28.33;34.07
8280;BME280;8335;42.646;23.380;2023-05-19T10:17:38;148556.78;;;28.31;34.49
8280;BME280;8335;42.646;23.380;2023-05-19T10:20:07;148574.41;;;28.38;35.83
8280;BME280;8335;42.646;23.380;2023-05-19T10:22:35;148252.13;;;27.08;37.17
8280;BME280;8335;42.646;23.380;2023-05-19T10:25:02;148301.16;;;27.28;37.29
8280;BME280;8335;42.646;23.380;2023-05-19T10:27:30;148318.75;;;27.35;37.87
8280;BME280;8335;42.646;23.380;2023-05-19T10:30:01;148335.13;;;27.41;37.88
8280;BME280;8335;42.646;23.380;2023-05-19T10:32:31;148380.44;;;27.60;39.11
8280;BME280;8335;42.646;23.380;2023-05-19T10:37:56;148415.75;;;27.74;36.63
8280;BME280;8335;42.646;23.380;2023-05-19T10:40:27;148424.53;;;27.78;36.99
8280;BME280;8335;42.646;23.380;2023-05-19T10:43:14;148299.91;;;27.27;35.37
8280;BME280;8335;42.646;23.380;2023-05-19T10:45:46;148274.75;;;27.17;37.27
8280;BME280;8335;42.646;23.380;2023-05-19T10:48:14;148116.19;;;26.53;37.38
8280;BME280;8335;42.646;23.380;2023-05-19T10:50:44;148096.09;;;26.45;38.61
8280;BME280;8335;42.646;23.380;2023-05-19T10:53:15;148083.50;;;26.40;39.42
8280;BME280;8335;42.646;23.380;2023-05-19T10:55:44;147938.84;;;25.81;39.68
8280;BME280;8335;42.646;23.380;2023-05-19T10:58:12;147844.50;;;25.43;38.92
8280;BME280;8335;42.646;23.380;2023-05-19T11:00:39;147754.03;;;25.06;40.23
8280;BME280;8335;42.646;23.380;2023-05-19T11:03:13;147727.63;;;24.95;41.42
8280;BME280;8335;42.646;23.380;2023-05-19T11:05:40;147727.63;;;24.95;41.06
8280;BME280;8335;42.646;23.380;2023-05-19T11:08:11;147776.69;;;25.15;40.15
8280;BME280;8335;42.646;23.380;2023-05-19T11:10:38;147656.03;;;24.66;40.52
8280;BME280;8335;42.646;23.380;2023-05-19T11:13:17;147544.16;;;24.21;41.13
8280;BME280;8335;42.646;23.380;2023-05-19T11:15:44;147555.47;;;24.26;42.06
8280;BME280;8335;42.646;23.380;2023-05-19T11:18:13;147638.44;;;24.59;41.63
8280;BME280;8335;42.646;23.380;2023-05-19T11:20:40;147686.13;;;24.79;41.28
8280;BME280;8335;42.646;23.380;2023-05-19T11:23:14;147644.69;;;24.62;41.57
8280;BME280;8335;42.646;23.380;2023-05-19T11:25:45;147591.94;;;24.40;42.19
8280;BME280;8335;42.646;23.380;2023-05-19T11:28:15;147600.75;;;24.44;42.37
8280;BME280;8335;42.646;23.380;2023-05-19T11:30:42;147599.50;;;24.43;40.56
8280;BME280;8335;42.646;23.380;2023-05-19T11:33:11;147618.34;;;24.51;41.07
8280;BME280;8335;42.646;23.380;2023-05-19T11:35:38;147600.75;;;24.44;42.61
8280;BME280;8335;42.646;23.380;2023-05-19T11:38:06;147458.81;;;23.86;43.92
8280;BME280;8335;42.646;23.380;2023-05-19T11:40:35;147217.78;;;22.89;49.67
8280;BME280;8335;42.646;23.380;2023-05-19T11:43:02;146943.00;;;21.77;60.25
8280;BME280;8335;42.646;23.380;2023-05-19T11:45:30;146394.19;;;19.54;69.30
8280;BME280;8335;42.646;23.380;2023-05-19T11:47:58;146113.88;;;18.40;73.20
8280;BME280;8335;42.646;23.380;2023-05-19T11:50:25;145986.34;;;17.88;79.87
8280;BME280;8335;42.646;23.380;2023-05-19T11:52:52;145955.09;;;17.75;82.53
8280;BME280;8335;42.646;23.380;2023-05-19T11:55:20;145887.53;;;17.48;85.12
8280;BME280;8335;42.646;23.380;2023-05-19T11:57:56;145833.81;;;17.26;90.32
8280;BME280;8335;42.646;23.380;2023-05-19T12:00:24;145776.34;;;17.02;96.01
8280;BME280;8335;42.646;23.380;2023-05-19T12:02:51;145722.63;;;16.81;92.60
8280;BME280;8335;42.646;23.380;2023-05-19T12:05:19;145623.91;;;16.40;92.34
8280;BME280;8335;42.646;23.380;2023-05-19T12:07:46;145511.53;;;15.94;93.34
8280;BME280;8335;42.646;23.380;2023-05-19T12:10:14;145427.84;;;15.60;93.14
8280;BME280;8335;42.646;23.380;2023-05-19T12:12:41;145334.28;;;15.22;87.04
8280;BME280;8335;42.646;23.380;2023-05-19T12:15:11;145259.41;;;14.92;92.47
8280;BME280;8335;42.646;23.380;2023-05-19T12:17:37;145223.22;;;14.77;94.92
8280;BME280;8335;42.646;23.380;2023-05-19T12:20:05;145223.22;;;14.77;98.39
8280;BME280;8335;42.646;23.380;2023-05-19T12:22:32;145241.94;;;14.84;94.43
8280;BME280;8335;42.646;23.380;2023-05-19T12:25:00;145258.16;;;14.91;98.15
8280;BME280;8335;42.646;23.380;2023-05-19T12:27:29;145331.75;;;15.21;100.00
8280;BME280;8335;42.646;23.380;2023-05-19T12:29:56;145414.13;;;15.55;98.78
8280;BME280;8335;42.646;23.380;2023-05-19T12:32:24;145489.03;;;15.85;98.77
8280;BME280;8335;42.646;23.380;2023-05-19T12:34:52;145471.56;;;15.78;91.07
8280;BME280;8335;42.646;23.380;2023-05-19T12:37:19;145578.97;;;16.22;91.04
8280;BME280;8335;42.646;23.380;2023-05-19T12:39:47;145631.41;;;16.43;91.65
8280;BME280;8335;42.646;23.380;2023-05-19T12:42:14;145700.13;;;16.71;89.27
8280;BME280;8335;42.646;23.380;2023-05-19T12:44:42;145797.56;;;17.11;85.47
8280;BME280;8335;42.646;23.380;2023-05-19T12:47:11;145892.53;;;17.50;83.37
8280;BME280;8335;42.646;23.380;2023-05-19T12:49:54;145945.06;;;17.71;81.32
8280;BME280;8335;42.646;23.380;2023-05-19T12:52:21;145983.88;;;17.87;77.48
8280;BME280;8335;42.646;23.380;2023-05-19T12:54:48;146026.34;;;18.04;78.95
8280;BME280;8335;42.646;23.380;2023-05-19T12:57:16;146067.59;;;18.21;76.09
8280;BME280;8335;42.646;23.380;2023-05-19T12:59:43;146120.13;;;18.42;75.33
8280;BME280;8335;42.646;23.380;2023-05-19T13:02:11;146160.19;;;18.59;72.40
8280;BME280;8335;42.646;23.380;2023-05-19T13:04:38;146222.75;;;18.84;69.27
8280;BME280;8335;42.646;23.380;2023-05-19T13:07:06;146296.56;;;19.14;66.01
8280;BME280;8335;42.646;23.380;2023-05-19T13:09:33;146326.59;;;19.27;65.06